sensor_id;sensor_type;location;lat;lon;timestamp;P1;durP1;ratioP1;P2;durP2;ratioP2
52534;SDS011;38443;53.164;5.802;2024-03-06T00:02:34;19.05;;;9.85;;
52534;SDS011;38443;53.164;5.802;2024-03-06T00:07:25;24.00;;;11.48;;
52534;SDS011;38443;53.164;5.802;2024-03-06T00:12:15;23.80;;;12.15;;
52534;SDS011;38443;53.164;5.802;2024-03-06T00:17:05;21.07;;;10.20;;
52534;SDS011;38443;53.164;5.802;2024-03-06T00:21:57;21.77;;;10.38;;
52534;SDS011;38443;53.164;5.802;2024-03-06T00:26:48;17.52;;;9.55;;
52534;SDS011;38443;53.164;5.802;2024-03-06T00:31:42;15.65;;;9.20;;
52534;SDS011;38443;53.164;5.802;2024-03-06T00:34:08;17.65;;;9.02;;
52534;SDS011;38443;53.164;5.802;2024-03-06T00:38:58;13.93;;;9.48;;
52534;SDS011;38443;53.164;5.802;2024-03-06T00:43:49;17.15;;;8.98;;
52534;SDS011;38443;53.164;5.802;2024-03-06T00:48:40;20.05;;;9.80;;
52534;SDS011;38443;53.164;5.802;2024-03-06T00:53:32;18.20;;;9.55;;
52534;SDS011;38443;53.164;5.802;2024-03-06T00:58:22;16.90;;;8.65;;
52534;SDS011;38443;53.164;5.802;2024-03-06T01:03:13;17.95;;;8.88;;
52534;SDS011;38443;53.164;5.802;2024-03-06T01:08:03;14.18;;;8.40;;
52534;SDS011;38443;53.164;5.802;2024-03-06T01:12:53;16.77;;;9.02;;
52534;SDS011;38443;53.164;5.802;2024-03-06T01:17:44;15.10;;;8.63;;
52534;SDS011;38443;53.164;5.802;2024-03-06T01:22:34;17.37;;;9.20;;
52534;SDS011;38443;53.164;5.802;2024-03-06T01:27:25;14.90;;;8.83;;
52534;SDS011;38443;53.164;5.802;2024-03-06T01:32:16;19.92;;;8.63;;
52534;SDS011;38443;53.164;5.802;2024-03-06T01:37:06;15.98;;;7.60;;
52534;SDS011;38443;53.164;5.802;2024-03-06T01:39:31;16.67;;;8.23;;
52534;SDS011;38443;53.164;5.802;2024-03-06T01:41:58;18.08;;;9.52;;
52534;SDS011;38443;53.164;5.802;2024-03-06T01:46:48;16.60;;;9.13;;
52534;SDS011;38443;53.164;5.802;2024-03-06T01:51:39;15.00;;;8.95;;
52534;SDS011;38443;53.164;5.802;2024-03-06T01:54:05;15.93;;;8.75;;
52534;SDS011;38443;53.164;5.802;2024-03-06T01:58:56;12.43;;;8.10;;
52534;SDS011;38443;53.164;5.802;2024-03-06T02:03:46;16.50;;;9.05;;
52534;SDS011;38443;53.164;5.802;2024-03-06T02:08:37;13.00;;;7.82;;
52534;SDS011;38443;53.164;5.802;2024-03-06T02:13:28;13.13;;;7.27;;
52534;SDS011;38443;53.164;5.802;2024-03-06T02:18:18;16.92;;;7.53;;
52534;SDS011;38443;53.164;5.802;2024-03-06T02:23:10;16.50;;;8.93;;
52534;SDS011;38443;53.164;5.802;2024-03-06T02:25:37;12.93;;;8.38;;
52534;SDS011;38443;53.164;5.802;2024-03-06T02:30:27;16.30;;;8.25;;
52534;SDS011;38443;53.164;5.802;2024-03-06T02:35:18;16.88;;;6.85;;
52534;SDS011;38443;53.164;5.802;2024-03-06T02:40:09;12.60;;;7.32;;
52534;SDS011;38443;53.164;5.802;2024-03-06T02:45:00;14.60;;;7.45;;
52534;SDS011;38443;53.164;5.802;2024-03-06T02:49:50;12.88;;;7.40;;
52534;SDS011;38443;53.164;5.802;2024-03-06T02:54:41;20.73;;;8.23;;
52534;SDS011;38443;53.164;5.802;2024-03-06T02:59:32;15.35;;;8.27;;
52534;SDS011;38443;53.164;5.802;2024-03-06T03:04:22;13.55;;;8.05;;
52534;SDS011;38443;53.164;5.802;2024-03-06T03:09:13;13.55;;;7.68;;
52534;SDS011;38443;53.164;5.802;2024-03-06T03:14:03;20.47;;;8.50;;
52534;SDS011;38443;53.164;5.802;2024-03-06T03:18:55;17.42;;;8.65;;
52534;SDS011;38443;53.164;5.802;2024-03-06T03:21:20;13.15;;;8.00;;
52534;SDS011;38443;53.164;5.802;2024-03-06T03:23:46;15.43;;;7.40;;
52534;SDS011;38443;53.164;5.802;2024-03-06T03:28:39;17.80;;;7.80;;
52534;SDS011;38443;53.164;5.802;2024-03-06T03:31:06;14.02;;;7.95;;
52534;SDS011;38443;53.164;5.802;2024-03-06T03:33:31;13.52;;;8.38;;
52534;SDS011;38443;53.164;5.802;2024-03-06T03:38:21;18.13;;;7.72;;
52534;SDS011;38443;53.164;5.802;2024-03-06T03:43:12;16.90;;;7.68;;
52534;SDS011;38443;53.164;5.802;2024-03-06T03:48:02;21.33;;;9.77;;
52534;SDS011;38443;53.164;5.802;2024-03-06T03:52:53;13.02;;;7.78;;
52534;SDS011;38443;53.164;5.802;2024-03-06T03:57:43;14.07;;;7.73;;
52534;SDS011;38443;53.164;5.802;2024-03-06T04:02:36;17.88;;;7.78;;
52534;SDS011;38443;53.164;5.802;2024-03-06T04:07:26;17.00;;;8.40;;
52534;SDS011;38443;53.164;5.802;2024-03-06T04:09:51;13.30;;;8.23;;
52534;SDS011;38443;53.164;5.802;2024-03-06T04:14:42;16.92;;;7.30;;
52534;SDS011;38443;53.164;5.802;2024-03-06T04:19:32;15.80;;;8.48;;
52534;SDS011;38443;53.164;5.802;2024-03-06T04:24:23;15.07;;;8.03;;
52534;SDS011;38443;53.164;5.802;2024-03-06T04:29:13;16.55;;;9.10;;
52534;SDS011;38443;53.164;5.802;2024-03-06T04:34:03;16.20;;;8.40;;
52534;SDS011;38443;53.164;5.802;2024-03-06T04:38:54;17.48;;;8.98;;
52534;SDS011;38443;53.164;5.802;2024-03-06T04:43:44;19.90;;;8.68;;
52534;SDS011;38443;53.164;5.802;2024-03-06T04:46:13;13.85;;;7.65;;
52534;SDS011;38443;53.164;5.802;2024-03-06T04:48:39;16.23;;;8.43;;
52534;SDS011;38443;53.164;5.802;2024-03-06T04:53:29;16.20;;;7.70;;
52534;SDS011;38443;53.164;5.802;2024-03-06T04:58:19;19.85;;;8.93;;
52534;SDS011;38443;53.164;5.802;2024-03-06T05:03:10;11.63;;;7.32;;
52534;SDS011;38443;53.164;5.802;2024-03-06T05:08:01;14.98;;;8.10;;
52534;SDS011;38443;53.164;5.802;2024-03-06T05:12:52;18.65;;;9.65;;
52534;SDS011;38443;53.164;5.802;2024-03-06T05:17:44;15.50;;;8.17;;
52534;SDS011;38443;53.164;5.802;2024-03-06T05:20:09;16.23;;;7.90;;
52534;SDS011;38443;53.164;5.802;2024-03-06T05:25:00;16.75;;;9.00;;
52534;SDS011;38443;53.164;5.802;2024-03-06T05:29:51;18.75;;;9.02;;
52534;SDS011;38443;53.164;5.802;2024-03-06T05:34:42;15.77;;;8.77;;
52534;SDS011;38443;53.164;5.802;2024-03-06T05:39:32;17.95;;;9.13;;
52534;SDS011;38443;53.164;5.802;2024-03-06T05:44:23;16.38;;;8.60;;
52534;SDS011;38443;53.164;5.802;2024-03-06T05:49:13;15.20;;;8.18;;
52534;SDS011;38443;53.164;5.802;2024-03-06T05:54:04;18.10;;;9.20;;
52534;SDS011;38443;53.164;5.802;2024-03-06T05:56:31;16.40;;;9.05;;
52534;SDS011;38443;53.164;5.802;2024-03-06T06:01:21;19.98;;;9.52;;
52534;SDS011;38443;53.164;5.802;2024-03-06T06:06:14;20.48;;;9.48;;
52534;SDS011;38443;53.164;5.802;2024-03-06T06:08:39;14.88;;;8.30;;
52534;SDS011;38443;53.164;5.802;2024-03-06T06:13:30;17.50;;;8.80;;
52534;SDS011;38443;53.164;5.802;2024-03-06T06:18:20;17.08;;;9.07;;
52534;SDS011;38443;53.164;5.802;2024-03-06T06:23:11;15.77;;;8.77;;
52534;SDS011;38443;53.164;5.802;2024-03-06T06:28:01;18.70;;;9.23;;
52534;SDS011;38443;53.164;5.802;2024-03-06T06:32:52;20.13;;;9.27;;
52534;SDS011;38443;53.164;5.802;2024-03-06T06:37:42;18.37;;;10.20;;
52534;SDS011;38443;53.164;5.802;2024-03-06T06:42:33;18.40;;;9.93;;
52534;SDS011;38443;53.164;5.802;2024-03-06T06:47:23;19.73;;;10.57;;
52534;SDS011;38443;53.164;5.802;2024-03-06T06:52:14;17.63;;;8.27;;
52534;SDS011;38443;53.164;5.802;2024-03-06T06:57:04;23.88;;;10.52;;
52534;SDS011;38443;53.164;5.802;2024-03-06T07:01:54;22.35;;;10.00;;
52534;SDS011;38443;53.164;5.802;2024-03-06T07:06:45;20.83;;;10.70;;
52534;SDS011;38443;53.164;5.802;2024-03-06T07:11:36;18.13;;;9.35;;
52534;SDS011;38443;53.164;5.802;2024-03-06T07:16:27;19.40;;;10.90;;
52534;SDS011;38443;53.164;5.802;2024-03-06T07:18:52;18.47;;;9.90;;
52534;SDS011;38443;53.164;5.802;2024-03-06T07:23:43;20.88;;;10.00;;
52534;SDS011;38443;53.164;5.802;2024-03-06T07:26:09;21.85;;;11.13;;
52534;SDS011;38443;53.164;5.802;2024-03-06T07:30:59;21.30;;;10.27;;
52534;SDS011;38443;53.164;5.802;2024-03-06T07:35:50;21.20;;;11.13;;
52534;SDS011;38443;53.164;5.802;2024-03-06T07:40:40;17.92;;;10.40;;
52534;SDS011;38443;53.164;5.802;2024-03-06T07:45:31;21.58;;;10.65;;
52534;SDS011;38443;53.164;5.802;2024-03-06T07:50:21;22.92;;;10.93;;
52534;SDS011;38443;53.164;5.802;2024-03-06T07:55:12;18.13;;;9.55;;
52534;SDS011;38443;53.164;5.802;2024-03-06T08:00:03;17.52;;;9.95;;
52534;SDS011;38443;53.164;5.802;2024-03-06T08:02:39;22.15;;;11.13;;
52534;SDS011;38443;53.164;5.802;2024-03-06T08:05:07;18.27;;;9.93;;
52534;SDS011;38443;53.164;5.802;2024-03-06T08:07:34;16.70;;;9.48;;
52534;SDS011;38443;53.164;5.802;2024-03-06T08:12:25;20.73;;;10.43;;
52534;SDS011;38443;53.164;5.802;2024-03-06T08:17:15;16.80;;;10.48;;
52534;SDS011;38443;53.164;5.802;2024-03-06T08:22:05;21.95;;;10.65;;
52534;SDS011;38443;53.164;5.802;2024-03-06T08:26:56;21.40;;;10.48;;
52534;SDS011;38443;53.164;5.802;2024-03-06T08:31:47;18.03;;;9.40;;
52534;SDS011;38443;53.164;5.802;2024-03-06T08:36:37;19.20;;;10.15;;
52534;SDS011;38443;53.164;5.802;2024-03-06T08:41:27;22.70;;;10.75;;
52534;SDS011;38443;53.164;5.802;2024-03-06T08:46:18;23.00;;;11.30;;
52534;SDS011;38443;53.164;5.802;2024-03-06T08:51:08;18.77;;;10.27;;
52534;SDS011;38443;53.164;5.802;2024-03-06T08:53:36;21.67;;;10.70;;
52534;SDS011;38443;53.164;5.802;2024-03-06T08:58:27;22.23;;;11.82;;
52534;SDS011;38443;53.164;5.802;2024-03-06T09:03:18;25.90;;;10.40;;
52534;SDS011;38443;53.164;5.802;2024-03-06T09:08:09;23.93;;;10.80;;
52534;SDS011;38443;53.164;5.802;2024-03-06T09:12:59;25.10;;;12.02;;
52534;SDS011;38443;53.164;5.802;2024-03-06T09:17:50;21.98;;;11.60;;
52534;SDS011;38443;53.164;5.802;2024-03-06T09:22:41;20.98;;;10.93;;
52534;SDS011;38443;53.164;5.802;2024-03-06T09:27:32;20.67;;;12.00;;
52534;SDS011;38443;53.164;5.802;2024-03-06T09:29:58;24.55;;;13.07;;
52534;SDS011;38443;53.164;5.802;2024-03-06T09:34:48;31.92;;;11.98;;
52534;SDS011;38443;53.164;5.802;2024-03-06T09:39:39;28.17;;;11.65;;
52534;SDS011;38443;53.164;5.802;2024-03-06T09:44:30;25.35;;;11.98;;
52534;SDS011;38443;53.164;5.802;2024-03-06T09:49:21;25.55;;;11.43;;
52534;SDS011;38443;53.164;5.802;2024-03-06T09:51:48;30.45;;;13.18;;
52534;SDS011;38443;53.164;5.802;2024-03-06T09:54:17;30.38;;;13.43;;
52534;SDS011;38443;53.164;5.802;2024-03-06T09:56:44;30.95;;;12.55;;
52534;SDS011;38443;53.164;5.802;2024-03-06T10:01:36;26.73;;;12.57;;
52534;SDS011;38443;53.164;5.802;2024-03-06T10:06:58;31.27;;;14.95;;
52534;SDS011;38443;53.164;5.802;2024-03-06T10:09:24;27.10;;;11.85;;
52534;SDS011;38443;53.164;5.802;2024-03-06T10:14:14;23.17;;;11.23;;
52534;SDS011;38443;53.164;5.802;2024-03-06T10:19:15;33.20;;;13.93;;
52534;SDS011;38443;53.164;5.802;2024-03-06T10:21:43;30.05;;;13.00;;
52534;SDS011;38443;53.164;5.802;2024-03-06T10:24:10;29.75;;;13.05;;
52534;SDS011;38443;53.164;5.802;2024-03-06T10:26:36;25.98;;;12.70;;
52534;SDS011;38443;53.164;5.802;2024-03-06T10:31:27;27.20;;;12.63;;
52534;SDS011;38443;53.164;5.802;2024-03-06T10:33:53;29.38;;;14.05;;
52534;SDS011;38443;53.164;5.802;2024-03-06T10:38:43;33.40;;;14.15;;
52534;SDS011;38443;53.164;5.802;2024-03-06T10:43:38;21.27;;;12.00;;
52534;SDS011;38443;53.164;5.802;2024-03-06T10:48:29;27.27;;;12.43;;
52534;SDS011;38443;53.164;5.802;2024-03-06T10:50:55;30.30;;;12.85;;
52534;SDS011;38443;53.164;5.802;2024-03-06T10:53:21;30.50;;;13.00;;
52534;SDS011;38443;53.164;5.802;2024-03-06T10:55:48;36.20;;;14.30;;
52534;SDS011;38443;53.164;5.802;2024-03-06T10:58:14;27.73;;;13.15;;
52534;SDS011;38443;53.164;5.802;2024-03-06T11:00:41;29.27;;;14.00;;
52534;SDS011;38443;53.164;5.802;2024-03-06T11:05:40;26.73;;;12.43;;
52534;SDS011;38443;53.164;5.802;2024-03-06T11:08:06;28.08;;;13.00;;
52534;SDS011;38443;53.164;5.802;2024-03-06T11:10:33;27.05;;;14.05;;
52534;SDS011;38443;53.164;5.802;2024-03-06T11:15:23;25.33;;;12.52;;
52534;SDS011;38443;53.164;5.802;2024-03-06T11:20:17;33.90;;;12.85;;
52534;SDS011;38443;53.164;5.802;2024-03-06T11:28:04;30.88;;;13.70;;
52534;SDS011;38443;53.164;5.802;2024-03-06T11:32:59;26.00;;;12.38;;
52534;SDS011;38443;53.164;5.802;2024-03-06T11:35:27;32.42;;;14.00;;
52534;SDS011;38443;53.164;5.802;2024-03-06T11:40:24;26.83;;;12.45;;
52534;SDS011;38443;53.164;5.802;2024-03-06T11:42:49;29.90;;;13.20;;
52534;SDS011;38443;53.164;5.802;2024-03-06T11:47:59;27.98;;;13.23;;
52534;SDS011;38443;53.164;5.802;2024-03-06T11:50:28;24.17;;;12.93;;
52534;SDS011;38443;53.164;5.802;2024-03-06T11:52:53;30.80;;;12.90;;
52534;SDS011;38443;53.164;5.802;2024-03-06T11:55:20;25.20;;;12.50;;
52534;SDS011;38443;53.164;5.802;2024-03-06T12:00:11;26.48;;;12.10;;
52534;SDS011;38443;53.164;5.802;2024-03-06T12:02:37;26.95;;;12.40;;
52534;SDS011;38443;53.164;5.802;2024-03-06T12:07:28;29.63;;;13.30;;
52534;SDS011;38443;53.164;5.802;2024-03-06T12:12:18;26.83;;;13.70;;
52534;SDS011;38443;53.164;5.802;2024-03-06T12:14:44;27.92;;;14.05;;
52534;SDS011;38443;53.164;5.802;2024-03-06T12:17:20;31.05;;;14.40;;
52534;SDS011;38443;53.164;5.802;2024-03-06T12:19:45;28.63;;;13.13;;
52534;SDS011;38443;53.164;5.802;2024-03-06T12:22:11;24.17;;;11.77;;
52534;SDS011;38443;53.164;5.802;2024-03-06T12:27:03;26.50;;;13.43;;
52534;SDS011;38443;53.164;5.802;2024-03-06T12:29:28;27.35;;;12.15;;
52534;SDS011;38443;53.164;5.802;2024-03-06T12:31:55;29.23;;;13.40;;
52534;SDS011;38443;53.164;5.802;2024-03-06T12:34:22;28.73;;;13.38;;
52534;SDS011;38443;53.164;5.802;2024-03-06T12:39:14;33.30;;;14.03;;
52534;SDS011;38443;53.164;5.802;2024-03-06T12:41:40;27.90;;;13.60;;
52534;SDS011;38443;53.164;5.802;2024-03-06T12:46:31;28.35;;;13.63;;
52534;SDS011;38443;53.164;5.802;2024-03-06T12:51:22;31.05;;;13.73;;
52534;SDS011;38443;53.164;5.802;2024-03-06T12:56:13;28.63;;;13.25;;
52534;SDS011;38443;53.164;5.802;2024-03-06T13:01:03;28.47;;;13.13;;
52534;SDS011;38443;53.164;5.802;2024-03-06T13:03:29;29.13;;;15.00;;
52534;SDS011;38443;53.164;5.802;2024-03-06T13:05:55;27.75;;;13.20;;
52534;SDS011;38443;53.164;5.802;2024-03-06T13:08:21;27.58;;;14.13;;
52534;SDS011;38443;53.164;5.802;2024-03-06T13:10:46;25.57;;;13.63;;
52534;SDS011;38443;53.164;5.802;2024-03-06T13:15:37;29.70;;;13.80;;
52534;SDS011;38443;53.164;5.802;2024-03-06T13:18:02;30.03;;;15.90;;
52534;SDS011;38443;53.164;5.802;2024-03-06T13:20:28;27.98;;;13.50;;
52534;SDS011;38443;53.164;5.802;2024-03-06T13:22:57;29.98;;;15.30;;
52534;SDS011;38443;53.164;5.802;2024-03-06T13:27:47;36.45;;;15.82;;
52534;SDS011;38443;53.164;5.802;2024-03-06T13:32:38;37.22;;;17.27;;
52534;SDS011;38443;53.164;5.802;2024-03-06T13:37:28;35.65;;;16.67;;
52534;SDS011;38443;53.164;5.802;2024-03-06T13:42:23;32.13;;;16.42;;
52534;SDS011;38443;53.164;5.802;2024-03-06T13:47:14;43.00;;;17.15;;
52534;SDS011;38443;53.164;5.802;2024-03-06T13:49:41;37.38;;;16.48;;
52534;SDS011;38443;53.164;5.802;2024-03-06T13:54:32;37.47;;;15.67;;
52534;SDS011;38443;53.164;5.802;2024-03-06T13:59:35;40.55;;;15.75;;
52534;SDS011;38443;53.164;5.802;2024-03-06T14:02:01;38.72;;;15.95;;
52534;SDS011;38443;53.164;5.802;2024-03-06T14:04:28;36.72;;;16.70;;
52534;SDS011;38443;53.164;5.802;2024-03-06T14:09:18;37.17;;;16.02;;
52534;SDS011;38443;53.164;5.802;2024-03-06T14:14:08;36.47;;;16.35;;
52534;SDS011;38443;53.164;5.802;2024-03-06T14:18:59;39.00;;;15.65;;
52534;SDS011;38443;53.164;5.802;2024-03-06T14:23:49;36.53;;;15.52;;
52534;SDS011;38443;53.164;5.802;2024-03-06T14:28:39;40.92;;;15.07;;
52534;SDS011;38443;53.164;5.802;2024-03-06T14:33:30;37.10;;;16.42;;
52534;SDS011;38443;53.164;5.802;2024-03-06T14:38:20;38.92;;;16.38;;
52534;SDS011;38443;53.164;5.802;2024-03-06T14:43:10;39.35;;;16.17;;
52534;SDS011;38443;53.164;5.802;2024-03-06T14:45:37;38.67;;;16.42;;
52534;SDS011;38443;53.164;5.802;2024-03-06T14:48:07;33.58;;;16.20;;
52534;SDS011;38443;53.164;5.802;2024-03-06T14:52:58;37.22;;;15.50;;
52534;SDS011;38443;53.164;5.802;2024-03-06T14:55:23;36.78;;;16.13;;
52534;SDS011;38443;53.164;5.802;2024-03-06T14:57:48;36.00;;;17.60;;
52534;SDS011;38443;53.164;5.802;2024-03-06T15:02:42;43.13;;;17.13;;
52534;SDS011;38443;53.164;5.802;2024-03-06T15:07:32;34.13;;;16.77;;
52534;SDS011;38443;53.164;5.802;2024-03-06T15:12:23;39.42;;;17.75;;
52534;SDS011;38443;53.164;5.802;2024-03-06T15:14:48;43.20;;;19.23;;
52534;SDS011;38443;53.164;5.802;2024-03-06T15:19:39;40.95;;;18.02;;
52534;SDS011;38443;53.164;5.802;2024-03-06T15:22:05;36.15;;;16.63;;
52534;SDS011;38443;53.164;5.802;2024-03-06T15:26:56;39.17;;;17.98;;
52534;SDS011;38443;53.164;5.802;2024-03-06T15:29:21;42.75;;;20.80;;
52534;SDS011;38443;53.164;5.802;2024-03-06T15:31:46;40.42;;;18.83;;
52534;SDS011;38443;53.164;5.802;2024-03-06T15:34:12;43.22;;;18.10;;
52534;SDS011;38443;53.164;5.802;2024-03-06T15:36:37;35.00;;;16.38;;
52534;SDS011;38443;53.164;5.802;2024-03-06T15:39:06;32.45;;;16.23;;
52534;SDS011;38443;53.164;5.802;2024-03-06T15:43:56;33.90;;;16.80;;
52534;SDS011;38443;53.164;5.802;2024-03-06T15:46:22;31.60;;;15.60;;
52534;SDS011;38443;53.164;5.802;2024-03-06T15:48:48;34.90;;;16.85;;
52534;SDS011;38443;53.164;5.802;2024-03-06T15:53:39;33.75;;;16.05;;
52534;SDS011;38443;53.164;5.802;2024-03-06T15:58:29;34.13;;;15.13;;
52534;SDS011;38443;53.164;5.802;2024-03-06T16:00:55;30.97;;;14.60;;
52534;SDS011;38443;53.164;5.802;2024-03-06T16:05:45;32.20;;;15.93;;
52534;SDS011;38443;53.164;5.802;2024-03-06T16:08:11;31.23;;;14.77;;
52534;SDS011;38443;53.164;5.802;2024-03-06T16:10:36;29.90;;;14.77;;
52534;SDS011;38443;53.164;5.802;2024-03-06T16:13:01;37.60;;;15.83;;
52534;SDS011;38443;53.164;5.802;2024-03-06T16:17:52;28.33;;;14.70;;
52534;SDS011;38443;53.164;5.802;2024-03-06T16:22:42;29.92;;;14.38;;
52534;SDS011;38443;53.164;5.802;2024-03-06T16:25:08;35.88;;;17.58;;
52534;SDS011;38443;53.164;5.802;2024-03-06T16:27:33;39.50;;;17.30;;
52534;SDS011;38443;53.164;5.802;2024-03-06T16:32:23;38.30;;;17.87;;
52534;SDS011;38443;53.164;5.802;2024-03-06T16:34:48;40.60;;;18.52;;
52534;SDS011;38443;53.164;5.802;2024-03-06T16:39:39;33.22;;;16.02;;
52534;SDS011;38443;53.164;5.802;2024-03-06T16:44:29;32.10;;;14.93;;
52534;SDS011;38443;53.164;5.802;2024-03-06T16:46:55;30.75;;;15.10;;
52534;SDS011;38443;53.164;5.802;2024-03-06T16:51:46;29.88;;;14.55;;
52534;SDS011;38443;53.164;5.802;2024-03-06T16:56:36;27.90;;;14.02;;
52534;SDS011;38443;53.164;5.802;2024-03-06T16:59:03;31.25;;;13.07;;
52534;SDS011;38443;53.164;5.802;2024-03-06T17:03:53;27.75;;;13.93;;
52534;SDS011;38443;53.164;5.802;2024-03-06T17:08:44;31.55;;;13.93;;
52534;SDS011;38443;53.164;5.802;2024-03-06T17:13:35;30.50;;;14.38;;
52534;SDS011;38443;53.164;5.802;2024-03-06T17:16:06;33.67;;;14.10;;
52534;SDS011;38443;53.164;5.802;2024-03-06T17:18:32;30.08;;;15.48;;
52534;SDS011;38443;53.164;5.802;2024-03-06T17:23:23;30.15;;;15.68;;
52534;SDS011;38443;53.164;5.802;2024-03-06T17:25:49;33.67;;;15.77;;
52534;SDS011;38443;53.164;5.802;2024-03-06T17:30:42;33.42;;;15.18;;
52534;SDS011;38443;53.164;5.802;2024-03-06T17:33:08;30.42;;;15.73;;
52534;SDS011;38443;53.164;5.802;2024-03-06T17:37:58;31.83;;;15.17;;
52534;SDS011;38443;53.164;5.802;2024-03-06T17:42:50;32.67;;;16.23;;
52534;SDS011;38443;53.164;5.802;2024-03-06T17:47:40;34.38;;;15.85;;
52534;SDS011;38443;53.164;5.802;2024-03-06T17:52:37;38.67;;;18.15;;
52534;SDS011;38443;53.164;5.802;2024-03-06T17:57:27;33.40;;;15.85;;
52534;SDS011;38443;53.164;5.802;2024-03-06T18:02:17;35.70;;;18.98;;
52534;SDS011;38443;53.164;5.802;2024-03-06T18:07:09;35.78;;;17.25;;
52534;SDS011;38443;53.164;5.802;2024-03-06T18:11:59;33.97;;;16.02;;
52534;SDS011;38443;53.164;5.802;2024-03-06T18:16:50;33.92;;;16.70;;
52534;SDS011;38443;53.164;5.802;2024-03-06T18:21:43;37.33;;;16.80;;
52534;SDS011;38443;53.164;5.802;2024-03-06T18:24:11;31.15;;;15.98;;
52534;SDS011;38443;53.164;5.802;2024-03-06T18:26:44;31.40;;;17.65;;
52534;SDS011;38443;53.164;5.802;2024-03-06T18:29:11;38.40;;;16.15;;
52534;SDS011;38443;53.164;5.802;2024-03-06T18:34:01;35.60;;;17.05;;
52534;SDS011;38443;53.164;5.802;2024-03-06T18:38:51;30.77;;;16.13;;
52534;SDS011;38443;53.164;5.802;2024-03-06T18:43:43;33.83;;;15.57;;
52534;SDS011;38443;53.164;5.802;2024-03-06T18:48:33;38.83;;;16.80;;
52534;SDS011;38443;53.164;5.802;2024-03-06T18:50:58;35.78;;;16.60;;
52534;SDS011;38443;53.164;5.802;2024-03-06T18:55:49;36.63;;;18.48;;
52534;SDS011;38443;53.164;5.802;2024-03-06T19:00:39;37.03;;;17.20;;
52534;SDS011;38443;53.164;5.802;2024-03-06T19:05:30;34.72;;;16.30;;
52534;SDS011;38443;53.164;5.802;2024-03-06T19:10:20;35.38;;;17.05;;
52534;SDS011;38443;53.164;5.802;2024-03-06T19:15:11;36.33;;;17.10;;
52534;SDS011;38443;53.164;5.802;2024-03-06T19:20:02;37.33;;;16.23;;
52534;SDS011;38443;53.164;5.802;2024-03-06T19:22:27;35.30;;;16.85;;
52534;SDS011;38443;53.164;5.802;2024-03-06T19:27:18;34.92;;;16.52;;
52534;SDS011;38443;53.164;5.802;2024-03-06T19:29:52;34.13;;;15.98;;
52534;SDS011;38443;53.164;5.802;2024-03-06T19:34:42;40.10;;;18.83;;
52534;SDS011;38443;53.164;5.802;2024-03-06T19:37:09;41.97;;;18.48;;
52534;SDS011;38443;53.164;5.802;2024-03-06T19:42:00;44.25;;;20.67;;
52534;SDS011;38443;53.164;5.802;2024-03-06T19:44:30;40.95;;;18.10;;
52534;SDS011;38443;53.164;5.802;2024-03-06T19:49:20;43.97;;;19.37;;
52534;SDS011;38443;53.164;5.802;2024-03-06T19:51:46;41.08;;;17.33;;
52534;SDS011;38443;53.164;5.802;2024-03-06T19:54:11;35.80;;;19.33;;
52534;SDS011;38443;53.164;5.802;2024-03-06T19:59:01;43.50;;;18.30;;
52534;SDS011;38443;53.164;5.802;2024-03-06T20:01:29;41.28;;;18.30;;
52534;SDS011;38443;53.164;5.802;2024-03-06T20:06:19;41.33;;;18.08;;
52534;SDS011;38443;53.164;5.802;2024-03-06T20:11:09;41.78;;;18.52;;
52534;SDS011;38443;53.164;5.802;2024-03-06T20:16:00;36.03;;;16.40;;
52534;SDS011;38443;53.164;5.802;2024-03-06T20:20:50;40.55;;;20.10;;
52534;SDS011;38443;53.164;5.802;2024-03-06T20:25:41;40.13;;;18.00;;
52534;SDS011;38443;53.164;5.802;2024-03-06T20:30:32;44.28;;;18.27;;
52534;SDS011;38443;53.164;5.802;2024-03-06T20:35:22;41.75;;;19.08;;
52534;SDS011;38443;53.164;5.802;2024-03-06T20:40:13;53.53;;;24.38;;
52534;SDS011;38443;53.164;5.802;2024-03-06T20:45:04;44.58;;;19.75;;
52534;SDS011;38443;53.164;5.802;2024-03-06T20:49:55;39.55;;;19.67;;
52534;SDS011;38443;53.164;5.802;2024-03-06T20:54:45;42.45;;;19.45;;
52534;SDS011;38443;53.164;5.802;2024-03-06T20:59:36;46.72;;;20.10;;
52534;SDS011;38443;53.164;5.802;2024-03-06T21:04:26;41.17;;;19.38;;
52534;SDS011;38443;53.164;5.802;2024-03-06T21:09:16;50.13;;;23.25;;
52534;SDS011;38443;53.164;5.802;2024-03-06T21:14:07;45.00;;;19.53;;
52534;SDS011;38443;53.164;5.802;2024-03-06T21:18:57;46.13;;;20.45;;
52534;SDS011;38443;53.164;5.802;2024-03-06T21:21:23;45.75;;;19.20;;
52534;SDS011;38443;53.164;5.802;2024-03-06T21:26:14;51.63;;;21.13;;
52534;SDS011;38443;53.164;5.802;2024-03-06T21:31:04;54.87;;;20.10;;
52534;SDS011;38443;53.164;5.802;2024-03-06T21:35:54;38.25;;;19.50;;
52534;SDS011;38443;53.164;5.802;2024-03-06T21:40:45;44.05;;;20.75;;
52534;SDS011;38443;53.164;5.802;2024-03-06T21:45:35;42.78;;;19.60;;
52534;SDS011;38443;53.164;5.802;2024-03-06T21:50:25;43.33;;;19.38;;
52534;SDS011;38443;53.164;5.802;2024-03-06T21:55:16;46.30;;;20.08;;
52534;SDS011;38443;53.164;5.802;2024-03-06T22:00:07;44.90;;;20.07;;
52534;SDS011;38443;53.164;5.802;2024-03-06T22:02:33;41.20;;;19.25;;
52534;SDS011;38443;53.164;5.802;2024-03-06T22:07:24;47.70;;;20.48;;
52534;SDS011;38443;53.164;5.802;2024-03-06T22:12:15;46.57;;;21.60;;
52534;SDS011;38443;53.164;5.802;2024-03-06T22:17:07;49.77;;;20.37;;
52534;SDS011;38443;53.164;5.802;2024-03-06T22:21:57;47.40;;;20.15;;
52534;SDS011;38443;53.164;5.802;2024-03-06T22:26:48;46.23;;;20.27;;
52534;SDS011;38443;53.164;5.802;2024-03-06T22:31:38;48.73;;;20.20;;
52534;SDS011;38443;53.164;5.802;2024-03-06T22:36:30;50.55;;;20.27;;
52534;SDS011;38443;53.164;5.802;2024-03-06T22:41:21;41.33;;;19.73;;
52534;SDS011;38443;53.164;5.802;2024-03-06T22:43:47;40.88;;;17.67;;
52534;SDS011;38443;53.164;5.802;2024-03-06T22:48:37;39.08;;;19.50;;
52534;SDS011;38443;53.164;5.802;2024-03-06T22:53:27;38.55;;;17.80;;
52534;SDS011;38443;53.164;5.802;2024-03-06T22:58:18;38.22;;;16.55;;
52534;SDS011;38443;53.164;5.802;2024-03-06T23:03:09;34.47;;;17.27;;
52534;SDS011;38443;53.164;5.802;2024-03-06T23:08:00;30.98;;;15.25;;
52534;SDS011;38443;53.164;5.802;2024-03-06T23:12:52;35.20;;;17.35;;
52534;SDS011;38443;53.164;5.802;2024-03-06T23:17:46;35.63;;;15.37;;
52534;SDS011;38443;53.164;5.802;2024-03-06T23:20:12;36.40;;;16.30;;
52534;SDS011;38443;53.164;5.802;2024-03-06T23:22:39;35.58;;;16.42;;
52534;SDS011;38443;53.164;5.802;2024-03-06T23:25:05;36.13;;;16.60;;
52534;SDS011;38443;53.164;5.802;2024-03-06T23:29:55;37.05;;;16.52;;
52534;SDS011;38443;53.164;5.802;2024-03-06T23:34:45;31.48;;;16.10;;
52534;SDS011;38443;53.164;5.802;2024-03-06T23:39:36;33.70;;;15.73;;
52534;SDS011;38443;53.164;5.802;2024-03-06T23:44:27;36.03;;;16.93;;
52534;SDS011;38443;53.164;5.802;2024-03-06T23:49:17;29.37;;;16.13;;
52534;SDS011;38443;53.164;5.802;2024-03-06T23:54:11;34.60;;;15.80;;
52534;SDS011;38443;53.164;5.802;2024-03-06T23:59:01;35.70;;;16.67;;
